XS80 weather

Scout Airport
Comfort, Texas, United States

Public forecast

Using degrees Fahrenheit for public forecast. Weather courtesy of forecast.io.

METAR (pilot weather report)

Closest report is Kerrville Municipal Louis Schreiner Field, 7.9 nm (14.6 km) W. Retrieved 2019/07/21 20:35 UTC (0 seconds ago):

KERV 212035Z AUTO 15008KT CLR 35/17 A2996 RMK AO2 T03450174 PWINO

TAF (pilot weather forecast)

Closest forecast is San Antonio International Airport, 35.8 nm (66.3 km) SE. Retrieved 2019/07/21 18:42 UTC (2 hours ago):

TAF KSAT 211739Z 2118/2224 16011KT P6SM FEW040 BKN250 FM221000 20005KT P6SM FEW008 BKN015 FM221400 15006KT P6SM FEW045 SCT250